首页
METAR-TAF:

METAR-TAF

机场 :

巴格达, 伊拉克

巴格達國際機場

纬度: 33-15-45N, 经度: 44-14-04E, 海拔: 35米

当前天气观测

该预报发布于15分钟前的01:30 UTC
风速19节,风向东南
温度 12°C
湿度 54%
气压 1009 hPa
能见度10公里或以上
1500米以下无云,无积雨云

METAR: ORBI 190130Z 13019KT CAVOK 12/03 Q1009

时间: 04:45 (01:45 UTC)

预报

该预报发布于3小时和45分钟前的22:00 UTC
预报有效从19日的 00点(UTC)到 19日的 24点(UTC)
风速16节,风向东南
能見度: 8000
短暂存在
从 19日的 03点(UTC)到 19日的 09点(UTC)

TAF: ORBI 182200Z 1900/1924 13016KT 8000 NSC TEMPO 1903/1909 15G25KT

超过4000个机场的气象观测和天气预报(METAR&TAF报告)。

可查询的气象台以黄色和红色小点在地图上表示。

将鼠标移到小点上方,可查看气象台名称。

然后点击查看天气观测和预报。

如需切换地图:点击带黑十字的绿色按钮放大地图;点击带横线的绿色按钮缩小地图;或者点击绿色箭头查看邻近地区的地图。


METAR-TAF: